Wilbern, Illinois
Current Conditions -  °F | °C
As of 10:55 PM on Sunday 21 Dec 2014 (Local Time) from KC75 Reporting Station
Overcast Overcast  
Wind Chill: 28°   Ceiling: 2700
Heat Index: 34°   Visibility: 7mi
Dew Point: 30°   Wind: 7mph
Humidity: 85%   Direction: 160°SSE
Pressure: 29.98"   Gusts: NA
Location:  40.9035°N, 89.2599°W
Report Text: KC75 220455Z AUTO 16006KT 7SM OVC027 01/M01 A2998 RMK AO2 T00131010
Loading
Personal Weather Stations






























Interactive Weather Map New forecast layout! Learn more

10-Day Weather Forecast

Advertisements
Track Severe Weather on mobile